ETEB 180611Z AUTO 00000KT 9999 OVC030 01/01 A3058 RMK AO2 SLP395 FZRANO $ ETIK 180637Z AUTO 00000KT 9000 BR FEW023 BKN035 02/02 A3062 RMK AO2 DZB26E37 SLP388 $ EDDE 180650Z 28007KT 9999 FEW013 BKN020 03/02 Q1035 NOSIG EDDF 180650Z 20003KT 170V230 9999 FEW022 BKN031 04/03 Q1038 NOSIG ETIC 180611Z AUTO 00000KT 9999 OVC029 00/M01 A3055 RMK AO2 SLP370 FZRANO $ EDQM 180650Z 00000KT 6000 SCT012 BKN015 BKN018 M01/M01 Q1034 ETIH 180639Z AUTO 00000KT 6000 BR OVC034 00/M01 A3058 RMK AO2 FZDZB28E38 SLP381 $ ETSI 180633Z 26005KT 7000 FEW010 BKN035 02/01 Q1036 WHT BLU TEMPO GRN EDDP 180650Z 29004KT 9000 -RADZ SCT007 OVC010 02/02 Q1035 TEMPO BKN008 EDDM 180650Z 27003KT 8000 BKN010 01/00 Q1036 TEMPO SCT010 ETSN 180620Z 27005KT 9999 FEW017 SCT022 BKN038 02/01 Q1036 BLU ETHN 180644Z 29002KT 0500 FG SCT001 BKN025 02/02 Q1036 RED YLO TEMPO RED EDDN 180650Z VRB01KT 9999 BCFG FEW005 BKN034 02/02 Q1036 NOSIG EDDS 180650Z 01005KT 6000 BKN005 BKN013 03/02 Q1036 TEMPO 4000 BR

METAR Messwerte

Klicken Sie auf einen Ort, um die 36h-Historie abzurufen

Ortsname
Ländercode / m ü. NN
Zeit Temperatur Taupunkt Rel.
Luftfeuchte
Luftdruck:
Altimeter
NN
Station
Wind in Beaufort
(Knoten)
Sichtweite
(Meter)
Wolken
(Meter über Grund)
Wettererscheinung
Ansbach
DE 466
Di 18.01. 07:1111100 %1036
1039
980
Windstill>= 10000Bedeckt (910) 
Bad Windsheim / Illesheim
DE 326
Di 18.01. 07:3722100 %1037
1039
998
Windstill9000Stark bewölkt (1100)
Leicht bewölkt (700)
Nebeldunst
Erfurt-Bindersleben
DE 314
Di 18.01. 07:503293 %1035
1037
997
W 3 (7)>= 10000Stark bewölkt (610)
Leicht bewölkt (400)
 
Frankfurt
DE 113
Di 18.01. 07:504393 %1038
1039
1024
SSW 2 (3)
S - SW
>= 10000Stark bewölkt (940)
Leicht bewölkt (670)
 
Grafenwöhr
DE 414
Di 18.01. 07:110-193 %1035
1038
985
Windstill>= 10000Bedeckt (880) 
Hof
DE 578
Di 18.01. 07:50-1-1100 %1034
1039
965
Windstill6000Stark bewölkt (550)
Stark bewölkt (460)
Wolkig (370)
 
Hohenfels
DE 436
Di 18.01. 07:390-193 %1036
1039
984
Windstill6000Bedeckt (1000)Nebeldunst
Ingolstadt
DE 366
Di 18.01. 07:332193 %1036
1038
992
W 2 (5)7000Stark bewölkt (1100)
Leicht bewölkt (300)
 
Leipzig-Schkeuditz
DE 129
Di 18.01. 07:5022100 %1035
1036
1019
WNW 2 (4)9000Bedeckt (300)
Wolkig (210)
Regen/Nieselregen (schwach)
München
DE 445
Di 18.01. 07:501093 %1036
1039
983
W 2 (3)8000Stark bewölkt (300) 
Neuburg/Donau
DE 378
Di 18.01. 07:202193 %1036
1038
991
W 2 (5)>= 10000Stark bewölkt (1200)
Wolkig (670)
Leicht bewölkt (520)
 
Niederstetten
DE 466
Di 18.01. 07:4422100 %1036
1039
980
WNW 1 (2)500Stark bewölkt (760)
Wolkig (30)
Nebel
Nürnberg
DE 312
Di 18.01. 07:5022100 %1036
1038
998
Uml 1 (1)>= 10000Stark bewölkt (1000)
Leicht bewölkt (150)
Nebel-Bänke
Stuttgart
DE 374
Di 18.01. 07:503293 %1036
1038
991
N 2 (5)6000
Bald zeitweise: 4000
Stark bewölkt (400)
Stark bewölkt (150)
 Bald zeitweise: Nebeldunst

Altimeter: Einstellung am Altimeter (Höhenmesser), die Höhe 0 muss auf diesen Luftdruckwert zeigen, damit das Gerät die Stationshöhe richtig anzeigt.

NN: Luftdruck reduziert auf "Normal Null", auf Meereshöhe, dieser von der Temperatur abhängige Wert wird bisweilen unkorrekt einfach als "Luftdruck" bezeichnet. Eigentlich nur eine fiktive Größe, die es erlaubt, Stationen auf unterschiedlichen Höhen miteinander zu vergleichen.

Station: Realer Luftdruck an der Station.